Latest Weather Observations for Paraburdoo

IDW60801

Issued at 9:32 am WST Saturday 28 March 2015 (issued every 30 minutes, with the page automatically refreshed every 10 minutes)

About weather observations | Map of weather stations | Latest weather observations for WA | Other Formats
Station Details ID: 007185 Name: PARABURDOO AERO Lat: -23.17 Lon: 117.75 Height: 423.7 m
Data from the previous 72 hours. | See also: Recent months at Paraburdoo
Date/Time
WST
Temp
°C
App
Temp
°C
Dew
Point
Rel
Hum
%
Delta-T
°C
Wind Press
QNH
hPa
Press
MSL
hPa
Rain
since 9 am
mm
Dir
 
Spd
km/h
Gust
km/h
Spd
kts
Gust
kts
28/09:30am 26.4 25.2 15.1 49 6.9 ESE 15 20 8 11 1018.7 1015.4 0.0
28/09:00am 25.7 25.4 16.5 56 5.8 E 13 19 7 10 1018.8 1015.5 0.0
28/08:30am 24.8 24.3 16.0 58 5.5 ENE 13 17 7 9 1018.7 1015.4 0.0
28/08:00am 23.8 24.6 17.3 67 4.1 ESE 9 13 5 7 1018.3 1015.1 0.0
28/07:30am 22.6 23.8 18.2 76 2.8 E 9 11 5 6 1018.1 1014.9 0.0
28/07:00am 20.8 23.0 20.5 98 0.2 ENE 9 11 5 6 1017.7 1014.5 0.0
28/06:30am 20.2 21.8 19.9 98 0.2 ENE 11 13 6 7 1017.3 1014.1 0.0
28/06:00am 20.3 21.9 20.0 98 0.2 ENE 11 13 6 7 1017.3 1014.1 0.0
28/05:30am 20.4 22.1 20.1 98 0.2 NE 11 13 6 7 1017.1 1013.8 0.0
28/05:00am 20.4 22.1 20.1 98 0.2 NE 11 11 6 6 1016.8 1013.5 0.0
28/04:30am 20.4 22.8 20.1 98 0.2 ENE 7 11 4 6 1016.7 1013.4 0.0
28/04:00am 20.8 23.4 20.5 98 0.2 NE 7 9 4 5 1016.8 1013.5 0.0
28/03:30am 21.1 24.2 20.3 95 0.5 SW 4 7 2 4 1016.7 1013.4 0.0
28/03:00am 20.9 22.8 20.6 98 0.2 NNE 11 13 6 7 1016.6 1013.3 0.0
28/02:30am 20.9 23.8 20.6 98 0.2 E 6 7 3 4 1016.8 1013.5 0.0
28/02:00am 21.0 23.3 20.7 98 0.2 ENE 9 9 5 5 1017.4 1014.2 0.0
28/01:30am 21.6 24.4 20.4 93 0.8 E 6 9 3 5 1017.9 1014.7 0.0
28/01:00am 21.7 24.2 20.3 92 0.9 ENE 7 7 4 4 1018.0 1014.8 0.0
28/12:30am 21.7 23.4 20.2 91 1.0 NE 11 13 6 7 1017.9 1014.7 0.0
28/12:00am 21.8 23.7 19.7 88 1.4 ENE 9 11 5 6 1018.4 1015.2 0.0
 
Date/Time
WST
Temp
°C
App
Temp
°C
Dew
Point
Rel
Hum
%
Delta-T
°C
Wind Press
QNH
hPa
Press
MSL
hPa
Rain
since 9 am
mm
Dir
 
Spd
km/h
Gust
km/h
Spd
kts
Gust
kts
27/11:30pm 22.2 22.6 19.0 82 2.1 ENE 15 17 8 9 1018.8 1015.5 0.0
27/11:00pm 22.5 22.8 17.8 75 3.0 NE 13 17 7 9 1019.1 1015.8 0.0
27/10:30pm 22.6 22.1 17.7 74 3.1 NE 17 19 9 10 1019.0 1015.7 0.0
27/10:00pm 22.8 23.6 18.1 75 3.0 ENE 11 17 6 9 1019.5 1016.3 0.0
27/09:30pm 23.3 23.1 17.7 71 3.5 E 15 19 8 10 1019.6 1016.4 0.0
27/09:00pm 23.7 23.5 16.7 65 4.4 ESE 13 17 7 9 1019.2 1015.9 0.0
27/08:30pm 24.0 23.7 16.5 63 4.7 ESE 13 19 7 10 1019.1 1015.8 0.0
27/08:00pm 24.4 23.4 17.6 66 4.3 SE 19 24 10 13 1018.8 1015.5 0.0
27/07:30pm 24.5 23.5 17.5 65 4.4 SSE 19 26 10 14 1018.4 1015.2 0.0
27/07:00pm 25.5 25.3 16.6 58 5.6 SE 13 19 7 10 1018.1 1014.9 0.0
27/06:30pm 25.8 24.6 16.1 55 6.0 ESE 17 20 9 11 1017.6 1014.4 0.0
27/06:00pm 26.3 24.6 16.3 54 6.3 ESE 20 26 11 14 1017.1 1013.8 0.0
27/05:30pm 26.9 24.5 15.3 49 7.2 ESE 22 33 12 18 1017.3 1014.1 0.0
27/05:00pm 27.3 24.6 14.7 46 7.7 ESE 22 30 12 16 1017.2 1014.0 0.0
27/04:30pm 27.6 24.5 14.6 45 8.0 E 24 33 13 18 1017.0 1013.7 0.0
27/04:00pm 28.0 25.3 15.6 46 7.7 E 24 32 13 17 1017.1 1013.8 0.0
27/03:30pm 27.9 24.9 16.8 50 7.0 E 28 39 15 21 1017.1 1013.8 0.0
27/03:00pm 28.2 25.1 16.5 49 7.4 E 28 39 15 21 1017.2 1014.0 0.0
27/02:30pm 27.7 25.4 16.6 50 7.0 E 24 35 13 19 1017.4 1014.2 0.0
27/02:00pm 28.6 25.2 14.8 43 8.5 E 26 33 14 18 1017.4 1014.2 0.0
27/01:30pm 28.5 25.7 15.4 45 8.2 ESE 24 37 13 20 1018.1 1014.9 0.0
27/01:00pm 28.6 26.1 16.2 47 7.8 ESE 24 33 13 18 1018.4 1015.2 0.0
27/12:30pm 27.4 24.9 16.1 50 7.1 SE 24 32 13 17 1019.0 1015.7 0.0
27/12:00pm 26.2 24.4 15.9 53 6.4 SSE 20 30 11 16 1019.7 1016.5 0.0
27/11:30am 26.1 24.6 15.2 51 6.7 ESE 17 22 9 12 1020.0 1016.8 0.0
27/11:00am 26.5 24.0 15.2 49 6.9 SE 22 30 12 16 1020.1 1016.9 0.0
27/10:30am 25.9 23.8 15.3 52 6.5 ESE 20 30 11 16 1019.9 1016.7 0.0
27/10:00am 25.5 23.2 14.6 51 6.6 E 20 28 11 15 1019.9 1016.7 0.0
27/09:30am 25.2 23.9 15.8 56 5.8 E 17 22 9 12 1019.6 1016.4 0.0
27/09:00am 24.2 23.5 16.5 62 4.8 E 15 22 8 12 1019.7 1016.5 0.4
27/08:30am 22.8 21.0 17.0 70 3.6 E 22 39 12 21 1019.7 1016.5 0.4
27/08:00am 21.9 21.6 18.3 80 2.3 ENE 17 22 9 12 1020.2 1017.0 0.4
27/07:30am 21.4 21.2 18.4 83 1.9 ENE 17 26 9 14 1020.4 1017.2 0.4
27/07:00am 20.4 21.6 19.9 97 0.3 E 13 19 7 10 1020.4 1017.2 0.4
27/06:30am 20.3 20.3 19.8 97 0.3 E 19 28 10 15 1020.2 1017.0 0.4
27/06:00am 21.5 21.8 17.1 76 2.7 E 11 17 6 9 1020.6 1017.4 0.0
27/05:30am 21.1 20.6 17.7 81 2.1 E 17 20 9 11 1019.8 1016.6 0.0
27/05:00am 20.8 22.9 18.0 84 1.8 SSE 4 7 2 4 1020.4 1017.2 0.0
27/04:30am 20.8 21.0 17.6 82 2.0 E 13 17 7 9 1019.0 1015.7 0.0
27/04:00am 20.6 20.7 17.4 82 2.0 E 13 17 7 9 1018.8 1015.5 0.0
27/03:30am 20.5 20.8 17.9 85 1.6 ENE 13 17 7 9 1018.7 1015.4 0.0
27/03:00am 20.4 21.0 17.8 85 1.6 ENE 11 15 6 8 1019.1 1015.8 0.0
27/02:30am 20.6 20.9 17.8 84 1.8 ENE 13 15 7 8 1019.3 1016.0 0.0
27/02:00am 20.7 21.5 18.1 85 1.6 E 11 11 6 6 1019.9 1016.7 0.0
27/01:30am 20.7 21.4 17.9 84 1.8 ENE 11 13 6 7 1020.0 1016.8 0.0
27/01:00am 21.1 22.2 17.1 78 2.5 E 7 9 4 5 1020.6 1017.4 0.0
27/12:30am 21.0 20.5 17.0 78 2.5 ENE 15 17 8 9 1020.2 1017.0 0.0
27/12:00am 20.8 21.1 17.8 83 1.9 ENE 13 15 7 8 1020.7 1017.5 0.0
 
Date/Time
WST
Temp
°C
App
Temp
°C
Dew
Point
Rel
Hum
%
Delta-T
°C
Wind Press
QNH
hPa
Press
MSL
hPa
Rain
since 9 am
mm
Dir
 
Spd
km/h
Gust
km/h
Spd
kts
Gust
kts
26/11:30pm 21.3 22.4 17.1 77 2.6 ESE 7 11 4 6 1021.1 1017.8 0.0
26/11:00pm 21.0 22.8 17.4 80 2.2 ENE 4 6 2 3 1021.4 1018.1 0.0
26/10:30pm 21.6 21.9 16.1 71 3.4 SE 9 11 5 6 1021.4 1018.1 0.0
26/10:00pm 22.4 21.8 15.7 66 4.1 SE 13 20 7 11 1021.3 1018.0 0.0
26/09:30pm 21.8 22.3 15.6 68 3.8 SSE 7 11 4 6 1021.5 1018.3 0.0
26/09:00pm 22.0 22.5 15.6 67 3.9 SSE 7 9 4 5 1021.7 1018.5 0.0
26/08:30pm 22.4 22.4 15.3 64 4.3 ESE 9 13 5 7 1021.3 1018.0 0.0
26/08:00pm 22.5 22.9 15.4 64 4.3 SE 7 11 4 6 1021.4 1018.1 0.0
26/07:30pm 22.7 22.5 14.8 61 4.8 SSE 9 11 5 6 1021.1 1017.8 0.0
26/07:00pm 23.2 22.2 14.5 58 5.2 SSE 13 17 7 9 1020.7 1017.5 0.0
26/06:30pm 23.2 22.6 14.5 58 5.2 SE 11 17 6 9 1020.1 1016.9 0.0
26/06:00pm 23.8 21.8 13.9 54 5.9 SSE 17 28 9 15 1019.7 1016.5 0.0
26/05:30pm 23.8 21.6 14.5 56 5.6 SSE 19 28 10 15 1019.5 1016.3 0.0
26/05:00pm 23.9 21.7 15.9 61 4.9 SSW 22 30 12 16 1019.8 1016.6 0.0
26/04:30pm 24.5 22.0 15.1 55 5.7 SSW 22 32 12 17 1019.4 1016.2 0.0
26/04:00pm 25.0 22.2 15.3 55 5.9 S 24 37 13 20 1019.2 1015.9 0.0
26/03:30pm 26.5 24.3 14.9 49 7.1 S 20 30 11 16 1019.2 1015.9 0.0
26/03:00pm 26.2 23.3 15.0 50 6.9 S 24 33 13 18 1019.2 1015.9 0.0
26/02:30pm 26.3 22.3 14.1 47 7.4 SSW 28 39 15 21 1018.9 1015.6 0.0
26/02:00pm 27.1 23.6 14.5 46 7.7 S 26 39 14 21 1018.6 1015.3 0.0
26/01:30pm 27.9 24.2 14.9 45 8.0 SSW 28 35 15 19 1018.7 1015.4 0.0
26/01:00pm 29.1 28.1 14.5 41 9.0 SSW 13 20 7 11 1018.7 1015.4 0.0
26/12:30pm 29.3 28.1 13.9 39 9.4 SE 13 19 7 10 1018.8 1015.5 0.0
26/12:00pm 28.3 26.3 13.8 41 8.8 SE 17 24 9 13 1019.3 1016.0 0.0
26/11:30am 27.3 25.2 13.6 43 8.3 ESE 17 22 9 12 1019.7 1016.5 0.0
26/11:00am 26.0 24.7 13.8 47 7.3 ESE 13 17 7 9 1020.1 1016.9 0.0
26/10:30am 25.6 23.7 13.1 46 7.4 ESE 15 20 8 11 1020.9 1017.7 0.0
26/10:00am 26.2 24.5 13.7 46 7.5 ESE 15 20 8 11 1021.2 1017.9 0.0
26/09:30am 25.1 24.3 15.1 53 6.1 ESE 13 19 7 10 1021.3 1018.0 0.0
26/09:00am 24.5 22.6 15.1 55 5.7 SE 19 24 10 13 1021.1 1017.8 1.8
26/08:30am 24.4 22.5 15.1 56 5.7 ESE 19 28 10 15 1021.1 1017.8 1.8
26/08:00am 24.3 24.1 16.6 62 4.8 E 13 20 7 11 1020.9 1017.7 1.8
26/07:30am 22.6 24.2 18.2 76 2.8 ESE 7 11 4 6 1020.6 1017.4 1.8
26/07:00am 22.6 24.1 18.8 79 2.4 E 9 15 5 8 1020.2 1017.0 1.8
26/06:30am 22.1 23.0 20.0 88 1.4 ESE 15 20 8 11 1019.6 1016.4 1.8
26/06:00am 21.7 23.8 20.9 95 0.5 SE 11 19 6 10 1019.3 1016.0 1.8
26/05:30am 20.9 23.6 20.6 98 0.2 ESE 7 9 4 5 1019.1 1015.8 1.8
26/05:00am 21.0 23.7 20.7 98 0.2 ESE 7 9 4 5 1018.9 1015.6 1.8
26/04:30am 21.1 23.9 20.8 98 0.2 E 7 11 4 6 1018.7 1015.4 1.8
26/04:00am 21.4 23.6 21.1 98 0.2 ESE 11 15 6 8 1018.4 1015.2 1.8
26/03:30am 21.1 25.3 20.9 99 0.1 CALM 0 0 0 0 1018.4 1015.2 1.8
26/03:00am 21.3 24.2 21.1 99 0.1 SSE 7 9 4 5 1018.4 1015.2 1.8
26/02:30am 21.6 24.9 21.4 99 0.1 E 6 7 3 4 1018.3 1015.1 1.8
26/02:00am 22.1 25.4 21.8 98 0.2 ESE 7 11 4 6 1018.3 1015.1 1.8
26/01:30am 22.6 25.7 22.1 97 0.3 NE 9 15 5 8 1018.2 1015.0 1.8
26/01:00am 22.1 25.6 21.8 98 0.2 S 6 7 3 4 1018.1 1014.9 1.8
26/12:30am 22.5 26.2 22.2 98 0.2 ENE 6 7 3 4 1018.1 1014.9 1.8
26/12:00am 22.6 23.9 21.6 94 0.7 E 17 20 9 11 1018.2 1015.0 1.8
 
Date/Time
WST
Temp
°C
App
Temp
°C
Dew
Point
Rel
Hum
%
Delta-T
°C
Wind Press
QNH
hPa
Press
MSL
hPa
Rain
since 9 am
mm
Dir
 
Spd
km/h
Gust
km/h
Spd
kts
Gust
kts
25/11:30pm 22.1 25.0 21.8 98 0.2 ESE 9 13 5 7 1019.0 1015.7 1.8
25/11:00pm 21.9 24.3 21.6 98 0.2 SE 11 15 6 8 1019.2 1015.9 1.8
25/10:30pm 22.2 24.8 22.0 99 0.1 SSE 11 13 6 7 1019.5 1016.3 1.8
25/10:00pm 22.0 23.9 22.0 100 0.0 ESE 15 22 8 12 1019.5 1016.3 1.8
25/09:30pm 22.0 22.8 21.8 99 0.1 N 20 28 11 15 1019.9 1016.7 1.0
25/09:00pm 23.8 24.7 23.3 97 0.3 NW 24 39 13 21 1018.8 1015.5 0.2
25/08:30pm 27.3 30.6 21.8 72 3.7 WSW 7 9 4 5 1018.0 1014.8 0.2
25/08:00pm 27.4 30.3 21.0 68 4.3 NNE 7 9 4 5 1017.8 1014.6 0.2
25/07:30pm 27.7 30.4 20.3 64 4.9 NE 6 7 3 4 1017.4 1014.2 0.2
25/07:00pm 27.6 31.9 21.9 71 3.9 ESE 2 7 1 4 1017.0 1013.7 0.2
25/06:30pm 28.0 31.6 20.6 64 5.0 W 2 6 1 3 1016.5 1013.2 0.2
25/06:00pm 28.5 31.5 20.0 60 5.7 NNW 4 9 2 5 1015.8 1012.6 0.2
25/05:30pm 28.9 30.9 18.7 54 6.7 S 6 7 3 4 1015.5 1012.3 0.2
25/05:00pm 28.9 30.3 18.7 54 6.7 SSE 9 11 5 6 1015.1 1011.9 0.2
25/04:30pm 28.7 29.8 18.8 55 6.5 S 11 15 6 8 1015.5 1012.3 0.2
25/04:00pm 29.0 29.9 19.3 55 6.4 SSE 13 19 7 10 1015.5 1012.3 0.2
25/03:30pm 29.2 31.4 19.5 56 6.4 SSE 7 17 4 9 1015.3 1012.1 0.2
25/03:00pm 29.3 31.4 19.0 53 6.8 SSE 6 11 3 6 1015.3 1012.1 0.2
25/02:30pm 29.2 31.2 19.2 54 6.6 W 7 11 4 6 1015.9 1012.7 0.2
25/02:00pm 29.1 30.6 18.8 53 6.7 NNW 9 13 5 7 1016.3 1013.0 0.2
25/01:30pm 29.1 30.5 17.9 50 7.2 NW 7 11 4 6 1016.5 1013.2 0.2
25/01:00pm 29.0 30.8 18.7 53 6.7 SSW 7 9 4 5 1016.6 1013.3 0.2
25/12:30pm 28.4 30.1 18.5 55 6.4 SW 7 11 4 6 1016.8 1013.5 0.2
25/12:00pm 27.7 29.2 19.0 59 5.7 SSW 9 15 5 8 1017.0 1013.7 0.2
25/11:30am 27.8 29.7 18.5 57 6.0 NNW 6 9 3 5 1017.2 1014.0 0.2
25/11:00am 27.0 29.2 19.6 64 4.9 WNW 7 13 4 7 1018.0 1014.8 0.0
25/10:30am 25.9 27.6 19.3 67 4.3 NNE 9 13 5 7 1018.4 1015.2 0.0
25/10:00am 25.5 26.6 19.6 70 3.9 ENE 13 17 7 9 1018.3 1015.1 0.0

Other Formats:

Comma delimited format used in spreadsheet applications
http://www.bom.gov.au/fwo/IDW60801/IDW60801.94316.axf

JavaScript Object Notation format (JSON) in row-major order
http://www.bom.gov.au/fwo/IDW60801/IDW60801.94316.json